sensor_id;sensor_type;location;lat;lon;timestamp;P1;durP1;ratioP1;P2;durP2;ratioP2
37945;SDS011;23769;52.478;13.448;2023-08-01T00:01:30;10.57;;;5.22;;
37945;SDS011;23769;52.478;13.448;2023-08-01T00:03:57;10.07;;;4.90;;
37945;SDS011;23769;52.478;13.448;2023-08-01T00:06:25;7.28;;;4.63;;
37945;SDS011;23769;52.478;13.448;2023-08-01T00:08:53;8.40;;;4.85;;
37945;SDS011;23769;52.478;13.448;2023-08-01T00:11:21;8.55;;;4.57;;
37945;SDS011;23769;52.478;13.448;2023-08-01T00:13:48;7.90;;;4.60;;
37945;SDS011;23769;52.478;13.448;2023-08-01T00:16:15;6.47;;;3.55;;
37945;SDS011;23769;52.478;13.448;2023-08-01T00:18:44;9.63;;;5.60;;
37945;SDS011;23769;52.478;13.448;2023-08-01T00:21:11;6.88;;;3.85;;
37945;SDS011;23769;52.478;13.448;2023-08-01T00:23:38;8.13;;;4.30;;
37945;SDS011;23769;52.478;13.448;2023-08-01T00:26:08;10.07;;;4.93;;
37945;SDS011;23769;52.478;13.448;2023-08-01T00:28:35;9.85;;;4.20;;
37945;SDS011;23769;52.478;13.448;2023-08-01T00:31:03;7.65;;;3.95;;
37945;SDS011;23769;52.478;13.448;2023-08-01T00:33:30;6.20;;;3.60;;
37945;SDS011;23769;52.478;13.448;2023-08-01T00:35:59;10.60;;;5.90;;
37945;SDS011;23769;52.478;13.448;2023-08-01T00:38:26;6.82;;;3.92;;
37945;SDS011;23769;52.478;13.448;2023-08-01T00:40:53;8.85;;;4.97;;
37945;SDS011;23769;52.478;13.448;2023-08-01T00:43:21;7.15;;;3.35;;
37945;SDS011;23769;52.478;13.448;2023-08-01T00:45:48;5.97;;;3.75;;
37945;SDS011;23769;52.478;13.448;2023-08-01T00:48:15;6.60;;;3.90;;
37945;SDS011;23769;52.478;13.448;2023-08-01T00:50:44;5.82;;;3.42;;
37945;SDS011;23769;52.478;13.448;2023-08-01T00:53:12;6.75;;;3.67;;
37945;SDS011;23769;52.478;13.448;2023-08-01T00:55:39;19.27;;;12.05;;
37945;SDS011;23769;52.478;13.448;2023-08-01T00:58:07;11.80;;;6.47;;
37945;SDS011;23769;52.478;13.448;2023-08-01T01:00:34;11.93;;;7.05;;
37945;SDS011;23769;52.478;13.448;2023-08-01T01:03:03;15.65;;;9.68;;
37945;SDS011;23769;52.478;13.448;2023-08-01T01:05:31;11.85;;;7.28;;
37945;SDS011;23769;52.478;13.448;2023-08-01T01:08:02;9.18;;;5.30;;
37945;SDS011;23769;52.478;13.448;2023-08-01T01:10:31;4.88;;;3.05;;
37945;SDS011;23769;52.478;13.448;2023-08-01T01:12:58;5.43;;;3.03;;
37945;SDS011;23769;52.478;13.448;2023-08-01T01:15:25;6.40;;;3.83;;
37945;SDS011;23769;52.478;13.448;2023-08-01T01:17:52;7.07;;;3.00;;
37945;SDS011;23769;52.478;13.448;2023-08-01T01:20:22;6.20;;;3.08;;
37945;SDS011;23769;52.478;13.448;2023-08-01T01:22:51;5.70;;;3.15;;
37945;SDS011;23769;52.478;13.448;2023-08-01T01:25:19;5.22;;;3.05;;
37945;SDS011;23769;52.478;13.448;2023-08-01T01:27:47;5.35;;;3.17;;
37945;SDS011;23769;52.478;13.448;2023-08-01T01:30:15;6.55;;;3.75;;
37945;SDS011;23769;52.478;13.448;2023-08-01T01:32:43;5.75;;;3.38;;
37945;SDS011;23769;52.478;13.448;2023-08-01T01:35:10;4.03;;;3.33;;
37945;SDS011;23769;52.478;13.448;2023-08-01T01:37:38;6.95;;;3.47;;
37945;SDS011;23769;52.478;13.448;2023-08-01T01:40:07;5.95;;;2.95;;
37945;SDS011;23769;52.478;13.448;2023-08-01T01:42:34;6.05;;;3.33;;
37945;SDS011;23769;52.478;13.448;2023-08-01T01:45:02;7.10;;;3.63;;
37945;SDS011;23769;52.478;13.448;2023-08-01T01:47:29;5.43;;;3.35;;
37945;SDS011;23769;52.478;13.448;2023-08-01T01:49:56;4.60;;;3.30;;
37945;SDS011;23769;52.478;13.448;2023-08-01T01:52:24;7.18;;;3.80;;
37945;SDS011;23769;52.478;13.448;2023-08-01T01:54:51;10.80;;;5.15;;
37945;SDS011;23769;52.478;13.448;2023-08-01T01:57:19;5.40;;;3.38;;
37945;SDS011;23769;52.478;13.448;2023-08-01T01:59:47;8.45;;;4.00;;
37945;SDS011;23769;52.478;13.448;2023-08-01T02:02:14;7.15;;;4.25;;
37945;SDS011;23769;52.478;13.448;2023-08-01T02:04:41;8.15;;;4.60;;
37945;SDS011;23769;52.478;13.448;2023-08-01T02:07:08;6.47;;;4.60;;
37945;SDS011;23769;52.478;13.448;2023-08-01T02:09:35;10.93;;;6.57;;
37945;SDS011;23769;52.478;13.448;2023-08-01T02:12:03;7.57;;;4.82;;
37945;SDS011;23769;52.478;13.448;2023-08-01T02:14:32;8.38;;;3.88;;
37945;SDS011;23769;52.478;13.448;2023-08-01T02:16:59;7.88;;;4.65;;
37945;SDS011;23769;52.478;13.448;2023-08-01T02:19:26;10.90;;;6.45;;
37945;SDS011;23769;52.478;13.448;2023-08-01T02:21:54;8.57;;;5.13;;
37945;SDS011;23769;52.478;13.448;2023-08-01T02:24:21;5.32;;;3.67;;
37945;SDS011;23769;52.478;13.448;2023-08-01T02:26:49;7.88;;;4.47;;
37945;SDS011;23769;52.478;13.448;2023-08-01T02:29:16;8.63;;;4.55;;
37945;SDS011;23769;52.478;13.448;2023-08-01T02:31:45;7.07;;;3.85;;
37945;SDS011;23769;52.478;13.448;2023-08-01T02:34:12;8.13;;;4.80;;
37945;SDS011;23769;52.478;13.448;2023-08-01T02:36:40;6.18;;;3.38;;
37945;SDS011;23769;52.478;13.448;2023-08-01T02:39:07;6.22;;;3.95;;
37945;SDS011;23769;52.478;13.448;2023-08-01T02:41:34;5.60;;;3.72;;
37945;SDS011;23769;52.478;13.448;2023-08-01T02:44:02;5.50;;;3.60;;
37945;SDS011;23769;52.478;13.448;2023-08-01T02:46:29;7.28;;;3.95;;
37945;SDS011;23769;52.478;13.448;2023-08-01T02:48:57;6.93;;;4.13;;
37945;SDS011;23769;52.478;13.448;2023-08-01T02:51:25;7.75;;;3.80;;
37945;SDS011;23769;52.478;13.448;2023-08-01T02:53:52;6.10;;;4.03;;
37945;SDS011;23769;52.478;13.448;2023-08-01T02:56:19;8.30;;;3.92;;
37945;SDS011;23769;52.478;13.448;2023-08-01T02:58:50;6.63;;;3.60;;
37945;SDS011;23769;52.478;13.448;2023-08-01T03:01:17;6.53;;;3.80;;
37945;SDS011;23769;52.478;13.448;2023-08-01T03:03:44;5.82;;;3.60;;
37945;SDS011;23769;52.478;13.448;2023-08-01T03:06:13;6.40;;;4.00;;
37945;SDS011;23769;52.478;13.448;2023-08-01T03:08:40;7.28;;;3.78;;
37945;SDS011;23769;52.478;13.448;2023-08-01T03:11:08;6.13;;;4.15;;
37945;SDS011;23769;52.478;13.448;2023-08-01T03:13:35;6.70;;;4.03;;
37945;SDS011;23769;52.478;13.448;2023-08-01T03:16:02;8.38;;;4.72;;
37945;SDS011;23769;52.478;13.448;2023-08-01T03:18:30;5.72;;;4.05;;
37945;SDS011;23769;52.478;13.448;2023-08-01T03:20:57;7.90;;;4.25;;
37945;SDS011;23769;52.478;13.448;2023-08-01T03:23:26;6.93;;;3.72;;
37945;SDS011;23769;52.478;13.448;2023-08-01T03:25:53;7.47;;;4.22;;
37945;SDS011;23769;52.478;13.448;2023-08-01T03:28:21;5.57;;;3.55;;
37945;SDS011;23769;52.478;13.448;2023-08-01T03:30:48;6.15;;;4.32;;
37945;SDS011;23769;52.478;13.448;2023-08-01T03:33:15;6.57;;;3.83;;
37945;SDS011;23769;52.478;13.448;2023-08-01T03:35:43;6.32;;;4.28;;
37945;SDS011;23769;52.478;13.448;2023-08-01T03:38:10;5.95;;;3.90;;
37945;SDS011;23769;52.478;13.448;2023-08-01T03:40:38;6.82;;;3.88;;
37945;SDS011;23769;52.478;13.448;2023-08-01T03:43:06;6.63;;;3.88;;
37945;SDS011;23769;52.478;13.448;2023-08-01T03:45:35;6.03;;;3.72;;
37945;SDS011;23769;52.478;13.448;2023-08-01T03:48:02;6.68;;;3.63;;
37945;SDS011;23769;52.478;13.448;2023-08-01T03:50:29;8.70;;;4.20;;
37945;SDS011;23769;52.478;13.448;2023-08-01T03:52:56;5.10;;;4.00;;
37945;SDS011;23769;52.478;13.448;2023-08-01T03:55:24;5.28;;;3.58;;
37945;SDS011;23769;52.478;13.448;2023-08-01T03:57:52;5.18;;;3.58;;
37945;SDS011;23769;52.478;13.448;2023-08-01T04:00:20;9.70;;;6.22;;
37945;SDS011;23769;52.478;13.448;2023-08-01T04:02:47;9.15;;;5.07;;
37945;SDS011;23769;52.478;13.448;2023-08-01T04:05:16;6.47;;;4.40;;
37945;SDS011;23769;52.478;13.448;2023-08-01T04:07:44;8.45;;;3.97;;
37945;SDS011;23769;52.478;13.448;2023-08-01T04:10:11;6.50;;;3.53;;
37945;SDS011;23769;52.478;13.448;2023-08-01T04:12:38;4.97;;;3.28;;
37945;SDS011;23769;52.478;13.448;2023-08-01T04:15:11;4.60;;;3.10;;
37945;SDS011;23769;52.478;13.448;2023-08-01T04:17:39;7.15;;;3.58;;
37945;SDS011;23769;52.478;13.448;2023-08-01T04:20:06;5.53;;;3.40;;
37945;SDS011;23769;52.478;13.448;2023-08-01T04:22:33;6.88;;;3.67;;
37945;SDS011;23769;52.478;13.448;2023-08-01T04:25:02;6.88;;;3.85;;
37945;SDS011;23769;52.478;13.448;2023-08-01T04:27:30;4.57;;;2.85;;
37945;SDS011;23769;52.478;13.448;2023-08-01T04:29:57;5.60;;;3.40;;
37945;SDS011;23769;52.478;13.448;2023-08-01T04:32:26;6.68;;;2.90;;
37945;SDS011;23769;52.478;13.448;2023-08-01T04:34:53;7.15;;;3.30;;
37945;SDS011;23769;52.478;13.448;2023-08-01T04:37:22;4.13;;;2.67;;
37945;SDS011;23769;52.478;13.448;2023-08-01T04:39:50;6.30;;;3.00;;
37945;SDS011;23769;52.478;13.448;2023-08-01T04:42:18;5.00;;;2.80;;
37945;SDS011;23769;52.478;13.448;2023-08-01T04:44:45;5.28;;;2.72;;
37945;SDS011;23769;52.478;13.448;2023-08-01T04:47:14;6.22;;;3.13;;
37945;SDS011;23769;52.478;13.448;2023-08-01T04:49:43;5.80;;;2.72;;
37945;SDS011;23769;52.478;13.448;2023-08-01T04:52:10;8.65;;;3.45;;
37945;SDS011;23769;52.478;13.448;2023-08-01T04:54:37;4.63;;;3.22;;
37945;SDS011;23769;52.478;13.448;2023-08-01T04:57:06;5.07;;;3.17;;
37945;SDS011;23769;52.478;13.448;2023-08-01T04:59:34;5.57;;;3.10;;
37945;SDS011;23769;52.478;13.448;2023-08-01T05:02:04;4.45;;;3.08;;
37945;SDS011;23769;52.478;13.448;2023-08-01T05:04:31;4.47;;;3.08;;
37945;SDS011;23769;52.478;13.448;2023-08-01T05:06:59;4.60;;;3.25;;
37945;SDS011;23769;52.478;13.448;2023-08-01T05:09:27;7.22;;;3.10;;
37945;SDS011;23769;52.478;13.448;2023-08-01T05:11:54;5.00;;;3.08;;
37945;SDS011;23769;52.478;13.448;2023-08-01T05:14:21;4.13;;;2.78;;
37945;SDS011;23769;52.478;13.448;2023-08-01T05:16:49;6.38;;;3.30;;
37945;SDS011;23769;52.478;13.448;2023-08-01T05:19:16;5.18;;;3.47;;
37945;SDS011;23769;52.478;13.448;2023-08-01T05:21:43;5.75;;;3.47;;
37945;SDS011;23769;52.478;13.448;2023-08-01T05:24:12;5.40;;;3.60;;
37945;SDS011;23769;52.478;13.448;2023-08-01T05:26:40;5.90;;;3.28;;
37945;SDS011;23769;52.478;13.448;2023-08-01T05:29:07;7.82;;;4.07;;
37945;SDS011;23769;52.478;13.448;2023-08-01T05:31:34;7.80;;;3.20;;
37945;SDS011;23769;52.478;13.448;2023-08-01T05:34:02;4.65;;;3.00;;
37945;SDS011;23769;52.478;13.448;2023-08-01T05:36:29;4.20;;;3.28;;
37945;SDS011;23769;52.478;13.448;2023-08-01T05:38:56;8.10;;;4.03;;
37945;SDS011;23769;52.478;13.448;2023-08-01T05:41:25;5.13;;;3.50;;
37945;SDS011;23769;52.478;13.448;2023-08-01T05:43:52;6.50;;;3.83;;
37945;SDS011;23769;52.478;13.448;2023-08-01T05:46:20;6.82;;;3.17;;
37945;SDS011;23769;52.478;13.448;2023-08-01T05:48:47;4.63;;;2.92;;
37945;SDS011;23769;52.478;13.448;2023-08-01T05:51:14;5.18;;;2.85;;
37945;SDS011;23769;52.478;13.448;2023-08-01T05:53:41;6.07;;;3.55;;
37945;SDS011;23769;52.478;13.448;2023-08-01T05:56:09;3.80;;;2.80;;
37945;SDS011;23769;52.478;13.448;2023-08-01T05:58:37;4.53;;;2.92;;
37945;SDS011;23769;52.478;13.448;2023-08-01T06:01:05;5.20;;;3.05;;
37945;SDS011;23769;52.478;13.448;2023-08-01T06:03:34;4.43;;;2.92;;
37945;SDS011;23769;52.478;13.448;2023-08-01T06:06:01;5.05;;;2.70;;
37945;SDS011;23769;52.478;13.448;2023-08-01T06:08:29;4.03;;;2.45;;
37945;SDS011;23769;52.478;13.448;2023-08-01T06:10:56;4.22;;;2.85;;
37945;SDS011;23769;52.478;13.448;2023-08-01T06:13:23;5.22;;;2.78;;
37945;SDS011;23769;52.478;13.448;2023-08-01T06:15:52;4.78;;;2.80;;
37945;SDS011;23769;52.478;13.448;2023-08-01T06:18:19;4.93;;;2.70;;
37945;SDS011;23769;52.478;13.448;2023-08-01T06:20:46;3.88;;;2.58;;
37945;SDS011;23769;52.478;13.448;2023-08-01T06:23:14;4.63;;;3.08;;
37945;SDS011;23769;52.478;13.448;2023-08-01T06:25:41;3.00;;;2.28;;
37945;SDS011;23769;52.478;13.448;2023-08-01T06:28:08;3.22;;;2.42;;
37945;SDS011;23769;52.478;13.448;2023-08-01T06:30:35;4.15;;;2.85;;
37945;SDS011;23769;52.478;13.448;2023-08-01T06:33:04;4.18;;;2.67;;
37945;SDS011;23769;52.478;13.448;2023-08-01T06:35:31;3.22;;;2.45;;
37945;SDS011;23769;52.478;13.448;2023-08-01T06:37:58;5.75;;;2.72;;
37945;SDS011;23769;52.478;13.448;2023-08-01T06:40:26;3.65;;;2.47;;
37945;SDS011;23769;52.478;13.448;2023-08-01T06:42:53;4.05;;;3.00;;
37945;SDS011;23769;52.478;13.448;2023-08-01T06:45:20;3.45;;;2.13;;
37945;SDS011;23769;52.478;13.448;2023-08-01T06:47:48;4.45;;;2.50;;
37945;SDS011;23769;52.478;13.448;2023-08-01T06:50:16;4.97;;;2.83;;
37945;SDS011;23769;52.478;13.448;2023-08-01T06:52:44;3.80;;;2.33;;
37945;SDS011;23769;52.478;13.448;2023-08-01T06:55:11;5.30;;;2.97;;
37945;SDS011;23769;52.478;13.448;2023-08-01T06:57:38;6.07;;;2.92;;
37945;SDS011;23769;52.478;13.448;2023-08-01T07:00:06;5.93;;;3.00;;
37945;SDS011;23769;52.478;13.448;2023-08-01T07:02:33;5.80;;;3.97;;
37945;SDS011;23769;52.478;13.448;2023-08-01T07:05:01;5.45;;;3.20;;
37945;SDS011;23769;52.478;13.448;2023-08-01T07:07:31;4.53;;;2.97;;
37945;SDS011;23769;52.478;13.448;2023-08-01T07:09:58;5.05;;;2.72;;
37945;SDS011;23769;52.478;13.448;2023-08-01T07:12:25;4.18;;;2.67;;
37945;SDS011;23769;52.478;13.448;2023-08-01T07:14:52;4.22;;;2.47;;
37945;SDS011;23769;52.478;13.448;2023-08-01T07:17:20;7.60;;;2.88;;
37945;SDS011;23769;52.478;13.448;2023-08-01T07:19:47;3.90;;;2.42;;
37945;SDS011;23769;52.478;13.448;2023-08-01T07:22:14;2.55;;;1.88;;
37945;SDS011;23769;52.478;13.448;2023-08-01T07:24:43;4.00;;;2.60;;
37945;SDS011;23769;52.478;13.448;2023-08-01T07:27:10;3.55;;;2.38;;
37945;SDS011;23769;52.478;13.448;2023-08-01T07:29:38;3.78;;;2.17;;
37945;SDS011;23769;52.478;13.448;2023-08-01T07:32:05;2.78;;;2.35;;
37945;SDS011;23769;52.478;13.448;2023-08-01T07:34:33;3.38;;;2.58;;
37945;SDS011;23769;52.478;13.448;2023-08-01T07:37:00;5.07;;;2.42;;
37945;SDS011;23769;52.478;13.448;2023-08-01T07:39:27;7.30;;;3.45;;
37945;SDS011;23769;52.478;13.448;2023-08-01T07:41:56;6.85;;;2.80;;
37945;SDS011;23769;52.478;13.448;2023-08-01T07:44:23;3.85;;;2.33;;
37945;SDS011;23769;52.478;13.448;2023-08-01T07:46:50;3.75;;;2.38;;
37945;SDS011;23769;52.478;13.448;2023-08-01T07:49:18;3.05;;;1.90;;
37945;SDS011;23769;52.478;13.448;2023-08-01T07:51:45;4.95;;;2.40;;
37945;SDS011;23769;52.478;13.448;2023-08-01T07:54:12;3.97;;;2.40;;
37945;SDS011;23769;52.478;13.448;2023-08-01T07:56:39;3.05;;;2.42;;
37945;SDS011;23769;52.478;13.448;2023-08-01T07:59:10;3.72;;;1.80;;
37945;SDS011;23769;52.478;13.448;2023-08-01T08:01:37;4.75;;;2.30;;
37945;SDS011;23769;52.478;13.448;2023-08-01T08:04:05;5.03;;;2.42;;
37945;SDS011;23769;52.478;13.448;2023-08-01T08:06:32;4.50;;;2.20;;
37945;SDS011;23769;52.478;13.448;2023-08-01T08:08:59;3.28;;;2.22;;
37945;SDS011;23769;52.478;13.448;2023-08-01T08:11:27;3.75;;;2.17;;
37945;SDS011;23769;52.478;13.448;2023-08-01T08:13:54;3.33;;;1.92;;
37945;SDS011;23769;52.478;13.448;2023-08-01T08:16:23;3.13;;;2.13;;
37945;SDS011;23769;52.478;13.448;2023-08-01T08:18:50;4.05;;;2.10;;
37945;SDS011;23769;52.478;13.448;2023-08-01T08:21:17;4.38;;;2.00;;
37945;SDS011;23769;52.478;13.448;2023-08-01T08:23:44;2.58;;;1.67;;
37945;SDS011;23769;52.478;13.448;2023-08-01T08:26:12;2.28;;;1.42;;
37945;SDS011;23769;52.478;13.448;2023-08-01T08:28:39;4.28;;;1.98;;
37945;SDS011;23769;52.478;13.448;2023-08-01T08:31:07;3.58;;;1.40;;
37945;SDS011;23769;52.478;13.448;2023-08-01T08:33:36;12.02;;;3.17;;
37945;SDS011;23769;52.478;13.448;2023-08-01T08:36:03;6.35;;;2.05;;
37945;SDS011;23769;52.478;13.448;2023-08-01T08:38:30;11.05;;;4.53;;
37945;SDS011;23769;52.478;13.448;2023-08-01T08:41:01;3.40;;;2.30;;
37945;SDS011;23769;52.478;13.448;2023-08-01T08:43:32;4.82;;;2.55;;
37945;SDS011;23769;52.478;13.448;2023-08-01T08:46:00;5.78;;;2.65;;
37945;SDS011;23769;52.478;13.448;2023-08-01T08:48:28;3.20;;;1.88;;
37945;SDS011;23769;52.478;13.448;2023-08-01T08:50:57;3.67;;;1.60;;
37945;SDS011;23769;52.478;13.448;2023-08-01T08:53:25;3.28;;;1.50;;
37945;SDS011;23769;52.478;13.448;2023-08-01T08:55:52;3.50;;;1.80;;
37945;SDS011;23769;52.478;13.448;2023-08-01T08:58:19;2.13;;;1.40;;
37945;SDS011;23769;52.478;13.448;2023-08-01T09:00:47;2.72;;;1.55;;
37945;SDS011;23769;52.478;13.448;2023-08-01T09:03:15;2.00;;;1.38;;
37945;SDS011;23769;52.478;13.448;2023-08-01T09:05:44;4.38;;;1.63;;
37945;SDS011;23769;52.478;13.448;2023-08-01T09:08:15;12.27;;;9.27;;
37945;SDS011;23769;52.478;13.448;2023-08-01T09:10:43;4.03;;;1.90;;
37945;SDS011;23769;52.478;13.448;2023-08-01T09:13:10;4.50;;;2.08;;
37945;SDS011;23769;52.478;13.448;2023-08-01T09:15:37;3.60;;;2.72;;
37945;SDS011;23769;52.478;13.448;2023-08-01T09:18:07;2.45;;;1.38;;
37945;SDS011;23769;52.478;13.448;2023-08-01T09:20:41;2.65;;;1.60;;
37945;SDS011;23769;52.478;13.448;2023-08-01T09:23:08;3.80;;;1.20;;
37945;SDS011;23769;52.478;13.448;2023-08-01T09:25:37;2.78;;;1.58;;
37945;SDS011;23769;52.478;13.448;2023-08-01T09:28:14;3.83;;;2.00;;
37945;SDS011;23769;52.478;13.448;2023-08-01T09:30:45;1.92;;;1.38;;
37945;SDS011;23769;52.478;13.448;2023-08-01T09:33:12;1.27;;;0.85;;
37945;SDS011;23769;52.478;13.448;2023-08-01T09:35:39;1.60;;;1.17;;
37945;SDS011;23769;52.478;13.448;2023-08-01T09:38:09;1.38;;;0.90;;
37945;SDS011;23769;52.478;13.448;2023-08-01T09:40:38;2.55;;;0.98;;
37945;SDS011;23769;52.478;13.448;2023-08-01T09:43:05;2.55;;;1.10;;
37945;SDS011;23769;52.478;13.448;2023-08-01T09:45:32;2.50;;;1.55;;
37945;SDS011;23769;52.478;13.448;2023-08-01T09:48:00;3.22;;;1.35;;
37945;SDS011;23769;52.478;13.448;2023-08-01T09:50:27;1.63;;;0.95;;
37945;SDS011;23769;52.478;13.448;2023-08-01T09:52:55;3.13;;;1.35;;
37945;SDS011;23769;52.478;13.448;2023-08-01T09:55:25;4.05;;;1.00;;
37945;SDS011;23769;52.478;13.448;2023-08-01T09:57:54;5.68;;;1.08;;
37945;SDS011;23769;52.478;13.448;2023-08-01T10:00:23;3.47;;;2.28;;
37945;SDS011;23769;52.478;13.448;2023-08-01T10:02:55;2.37;;;1.10;;
37945;SDS011;23769;52.478;13.448;2023-08-01T10:05:25;4.75;;;1.15;;
37945;SDS011;23769;52.478;13.448;2023-08-01T10:07:53;1.90;;;1.35;;
37945;SDS011;23769;52.478;13.448;2023-08-01T10:10:21;1.92;;;1.02;;
37945;SDS011;23769;52.478;13.448;2023-08-01T10:12:50;0.95;;;0.80;;
37945;SDS011;23769;52.478;13.448;2023-08-01T10:15:19;2.60;;;1.30;;
37945;SDS011;23769;52.478;13.448;2023-08-01T10:17:46;3.42;;;1.42;;
37945;SDS011;23769;52.478;13.448;2023-08-01T10:20:13;3.65;;;2.30;;
37945;SDS011;23769;52.478;13.448;2023-08-01T10:22:41;2.90;;;1.50;;
37945;SDS011;23769;52.478;13.448;2023-08-01T10:25:08;3.92;;;1.20;;
37945;SDS011;23769;52.478;13.448;2023-08-01T10:27:36;1.38;;;0.90;;
37945;SDS011;23769;52.478;13.448;2023-08-01T10:30:04;3.60;;;1.70;;
37945;SDS011;23769;52.478;13.448;2023-08-01T10:32:34;3.20;;;1.85;;
37945;SDS011;23769;52.478;13.448;2023-08-01T10:35:02;6.25;;;2.70;;
37945;SDS011;23769;52.478;13.448;2023-08-01T10:37:38;3.80;;;1.38;;
37945;SDS011;23769;52.478;13.448;2023-08-01T10:40:06;4.50;;;2.40;;
37945;SDS011;23769;52.478;13.448;2023-08-01T10:42:37;1.35;;;0.90;;
37945;SDS011;23769;52.478;13.448;2023-08-01T10:45:05;1.35;;;1.05;;
37945;SDS011;23769;52.478;13.448;2023-08-01T10:47:33;2.35;;;1.17;;
37945;SDS011;23769;52.478;13.448;2023-08-01T10:50:01;2.50;;;1.40;;
37945;SDS011;23769;52.478;13.448;2023-08-01T10:52:28;2.42;;;1.45;;
37945;SDS011;23769;52.478;13.448;2023-08-01T10:54:56;4.80;;;1.92;;
37945;SDS011;23769;52.478;13.448;2023-08-01T10:57:27;5.82;;;2.30;;
37945;SDS011;23769;52.478;13.448;2023-08-01T10:59:55;5.88;;;1.92;;
37945;SDS011;23769;52.478;13.448;2023-08-01T11:02:23;4.22;;;1.10;;
37945;SDS011;23769;52.478;13.448;2023-08-01T11:04:58;2.55;;;1.15;;
37945;SDS011;23769;52.478;13.448;2023-08-01T11:07:26;3.90;;;1.48;;
37945;SDS011;23769;52.478;13.448;2023-08-01T11:10:03;3.13;;;1.38;;
37945;SDS011;23769;52.478;13.448;2023-08-01T11:12:31;2.30;;;1.17;;
37945;SDS011;23769;52.478;13.448;2023-08-01T11:15:00;3.15;;;1.85;;
37945;SDS011;23769;52.478;13.448;2023-08-01T11:17:28;6.43;;;2.90;;
37945;SDS011;23769;52.478;13.448;2023-08-01T11:20:03;5.15;;;3.03;;
37945;SDS011;23769;52.478;13.448;2023-08-01T11:22:32;2.45;;;1.83;;
37945;SDS011;23769;52.478;13.448;2023-08-01T11:24:59;4.38;;;2.30;;
37945;SDS011;23769;52.478;13.448;2023-08-01T11:27:27;2.30;;;1.70;;
37945;SDS011;23769;52.478;13.448;2023-08-01T11:29:55;4.47;;;2.90;;
37945;SDS011;23769;52.478;13.448;2023-08-01T11:32:32;3.25;;;1.77;;
37945;SDS011;23769;52.478;13.448;2023-08-01T11:35:00;3.00;;;1.88;;
37945;SDS011;23769;52.478;13.448;2023-08-01T11:37:29;2.72;;;1.88;;
37945;SDS011;23769;52.478;13.448;2023-08-01T11:39:56;2.97;;;1.80;;
37945;SDS011;23769;52.478;13.448;2023-08-01T11:42:23;3.25;;;2.20;;
37945;SDS011;23769;52.478;13.448;2023-08-01T11:44:50;3.95;;;2.17;;
37945;SDS011;23769;52.478;13.448;2023-08-01T11:47:18;4.95;;;2.55;;
37945;SDS011;23769;52.478;13.448;2023-08-01T11:49:46;4.95;;;2.70;;
37945;SDS011;23769;52.478;13.448;2023-08-01T11:52:23;5.25;;;2.42;;
37945;SDS011;23769;52.478;13.448;2023-08-01T11:54:51;3.97;;;2.30;;
37945;SDS011;23769;52.478;13.448;2023-08-01T11:57:19;4.93;;;2.50;;
37945;SDS011;23769;52.478;13.448;2023-08-01T11:59:47;4.18;;;2.50;;
37945;SDS011;23769;52.478;13.448;2023-08-01T12:02:21;5.03;;;2.45;;
37945;SDS011;23769;52.478;13.448;2023-08-01T12:04:49;5.00;;;2.40;;
37945;SDS011;23769;52.478;13.448;2023-08-01T12:07:16;6.00;;;3.30;;
37945;SDS011;23769;52.478;13.448;2023-08-01T12:09:43;5.50;;;4.40;;
37945;SDS011;23769;52.478;13.448;2023-08-01T12:12:12;4.55;;;2.92;;
37945;SDS011;23769;52.478;13.448;2023-08-01T12:14:40;3.95;;;2.75;;
37945;SDS011;23769;52.478;13.448;2023-08-01T12:17:07;5.30;;;3.47;;
37945;SDS011;23769;52.478;13.448;2023-08-01T12:19:35;4.18;;;2.47;;
37945;SDS011;23769;52.478;13.448;2023-08-01T12:22:02;4.40;;;2.85;;
37945;SDS011;23769;52.478;13.448;2023-08-01T12:24:29;4.35;;;3.35;;
37945;SDS011;23769;52.478;13.448;2023-08-01T12:26:58;3.42;;;2.03;;
37945;SDS011;23769;52.478;13.448;2023-08-01T12:29:25;3.15;;;2.25;;
37945;SDS011;23769;52.478;13.448;2023-08-01T12:31:53;6.47;;;2.38;;
37945;SDS011;23769;52.478;13.448;2023-08-01T12:34:20;4.28;;;2.38;;
37945;SDS011;23769;52.478;13.448;2023-08-01T12:36:47;3.25;;;2.50;;
37945;SDS011;23769;52.478;13.448;2023-08-01T12:39:14;5.40;;;2.53;;
37945;SDS011;23769;52.478;13.448;2023-08-01T12:41:41;4.07;;;2.10;;
37945;SDS011;23769;52.478;13.448;2023-08-01T12:44:09;3.63;;;2.38;;
37945;SDS011;23769;52.478;13.448;2023-08-01T12:46:38;5.18;;;2.63;;
37945;SDS011;23769;52.478;13.448;2023-08-01T12:49:05;2.55;;;1.88;;
37945;SDS011;23769;52.478;13.448;2023-08-01T12:51:32;4.05;;;2.42;;
37945;SDS011;23769;52.478;13.448;2023-08-01T12:53:59;4.80;;;2.65;;
37945;SDS011;23769;52.478;13.448;2023-08-01T12:56:26;4.88;;;2.60;;
37945;SDS011;23769;52.478;13.448;2023-08-01T12:58:54;5.97;;;3.25;;
37945;SDS011;23769;52.478;13.448;2023-08-01T13:01:21;5.57;;;3.58;;
37945;SDS011;23769;52.478;13.448;2023-08-01T13:03:50;6.07;;;3.33;;
37945;SDS011;23769;52.478;13.448;2023-08-01T13:06:17;4.40;;;2.30;;
37945;SDS011;23769;52.478;13.448;2023-08-01T13:08:44;4.60;;;3.13;;
37945;SDS011;23769;52.478;13.448;2023-08-01T13:11:11;4.00;;;2.60;;
37945;SDS011;23769;52.478;13.448;2023-08-01T13:13:39;4.35;;;2.85;;
37945;SDS011;23769;52.478;13.448;2023-08-01T13:16:06;4.05;;;2.78;;
37945;SDS011;23769;52.478;13.448;2023-08-01T13:18:34;3.83;;;2.42;;
37945;SDS011;23769;52.478;13.448;2023-08-01T13:21:03;5.47;;;2.42;;
37945;SDS011;23769;52.478;13.448;2023-08-01T13:23:30;3.67;;;2.50;;
37945;SDS011;23769;52.478;13.448;2023-08-01T13:25:58;3.80;;;2.80;;
37945;SDS011;23769;52.478;13.448;2023-08-01T13:28:27;4.18;;;2.95;;
37945;SDS011;23769;52.478;13.448;2023-08-01T13:30:54;4.95;;;2.65;;
37945;SDS011;23769;52.478;13.448;2023-08-01T13:33:21;5.28;;;2.33;;
37945;SDS011;23769;52.478;13.448;2023-08-01T13:35:50;5.32;;;2.50;;
37945;SDS011;23769;52.478;13.448;2023-08-01T13:38:19;2.85;;;2.35;;
37945;SDS011;23769;52.478;13.448;2023-08-01T13:40:46;5.95;;;3.00;;
37945;SDS011;23769;52.478;13.448;2023-08-01T13:43:13;13.57;;;9.13;;
37945;SDS011;23769;52.478;13.448;2023-08-01T13:45:41;8.55;;;5.72;;
37945;SDS011;23769;52.478;13.448;2023-08-01T13:48:08;11.95;;;8.70;;
37945;SDS011;23769;52.478;13.448;2023-08-01T13:50:35;11.90;;;9.32;;
37945;SDS011;23769;52.478;13.448;2023-08-01T13:53:02;5.28;;;3.45;;
37945;SDS011;23769;52.478;13.448;2023-08-01T13:55:33;5.13;;;2.45;;
37945;SDS011;23769;52.478;13.448;2023-08-01T13:58:00;4.50;;;2.60;;
37945;SDS011;23769;52.478;13.448;2023-08-01T14:00:28;4.85;;;2.60;;
37945;SDS011;23769;52.478;13.448;2023-08-01T14:02:55;6.55;;;4.80;;
37945;SDS011;23769;52.478;13.448;2023-08-01T14:05:24;6.03;;;3.20;;
37945;SDS011;23769;52.478;13.448;2023-08-01T14:07:51;3.42;;;2.42;;
37945;SDS011;23769;52.478;13.448;2023-08-01T14:10:19;6.18;;;4.07;;
37945;SDS011;23769;52.478;13.448;2023-08-01T14:12:48;4.68;;;2.78;;
37945;SDS011;23769;52.478;13.448;2023-08-01T14:15:15;5.90;;;3.58;;
37945;SDS011;23769;52.478;13.448;2023-08-01T14:17:42;6.80;;;3.83;;
37945;SDS011;23769;52.478;13.448;2023-08-01T14:20:10;5.90;;;3.35;;
37945;SDS011;23769;52.478;13.448;2023-08-01T14:22:37;4.90;;;3.00;;
37945;SDS011;23769;52.478;13.448;2023-08-01T14:25:05;4.43;;;2.75;;
37945;SDS011;23769;52.478;13.448;2023-08-01T14:27:34;4.97;;;2.60;;
37945;SDS011;23769;52.478;13.448;2023-08-01T14:30:02;5.28;;;3.17;;
37945;SDS011;23769;52.478;13.448;2023-08-01T14:32:30;5.13;;;2.90;;
37945;SDS011;23769;52.478;13.448;2023-08-01T14:34:58;5.07;;;3.58;;
37945;SDS011;23769;52.478;13.448;2023-08-01T14:37:25;4.47;;;2.97;;